createdAt,value
2023-02-02T00:00:45.653Z,91.03
2023-02-02T00:01:45.646Z,91.03
2023-02-02T00:02:45.718Z,91.03
2023-02-02T00:03:45.669Z,91.03
2023-02-02T00:04:45.636Z,91.13
2023-02-02T00:05:45.614Z,90.93
2023-02-02T00:06:45.616Z,91.03
2023-02-02T00:07:45.624Z,90.93
2023-02-02T00:08:45.584Z,91.03
2023-02-02T00:09:45.578Z,90.62
2023-02-02T00:10:45.557Z,91.13
2023-02-02T00:11:45.549Z,91.13
2023-02-02T00:12:45.548Z,91.38
2023-02-02T00:13:45.528Z,91.24
2023-02-02T00:14:45.529Z,90.83
2023-02-02T00:15:45.530Z,91.34
2023-02-02T00:16:45.512Z,91.44
2023-02-02T00:17:45.480Z,91.44
2023-02-02T00:18:45.477Z,90.93
2023-02-02T00:19:45.459Z,91.13
2023-02-02T00:20:45.479Z,91.13
2023-02-02T00:21:45.451Z,91.20
2023-02-02T00:22:45.443Z,90.68
2023-02-02T00:23:45.422Z,89.54
2023-02-02T00:24:45.407Z,89.65
2023-02-02T00:25:45.417Z,90.06
2023-02-02T00:26:45.444Z,90.37
2023-02-02T00:27:45.383Z,90.78
2023-02-02T00:28:45.387Z,90.31
2023-02-02T00:29:45.361Z,90.68
2023-02-02T00:30:45.384Z,90.16
2023-02-02T00:31:45.438Z,90.37
2023-02-02T00:32:45.328Z,90.06
2023-02-02T00:33:45.322Z,89.86
2023-02-02T00:34:45.327Z,89.75
2023-02-02T00:35:45.298Z,90.06
2023-02-02T00:36:45.303Z,90.78
2023-02-02T00:37:45.278Z,90.68
2023-02-02T00:38:45.260Z,90.68
2023-02-02T00:39:45.246Z,90.68
2023-02-02T00:40:45.237Z,90.89
2023-02-02T00:41:45.234Z,90.37
2023-02-02T00:42:45.230Z,90.58
2023-02-02T00:43:45.212Z,90.68
2023-02-02T00:44:45.200Z,90.47
2023-02-02T00:45:45.235Z,90.47
2023-02-02T00:46:45.176Z,90.53
2023-02-02T00:47:45.181Z,90.58
2023-02-02T00:48:45.161Z,90.16
2023-02-02T00:49:45.148Z,90.89
2023-02-02T00:50:45.130Z,91.20
2023-02-02T00:51:45.125Z,91.30
2023-02-02T00:52:45.131Z,91.20
2023-02-02T00:53:45.112Z,91.61
2023-02-02T00:54:45.080Z,91.61
2023-02-02T00:55:45.072Z,90.99
2023-02-02T00:56:45.069Z,91.30
2023-02-02T00:57:45.066Z,91.09
2023-02-02T00:58:45.058Z,91.09
2023-02-02T00:59:45.045Z,90.89
2023-02-02T01:00:45.041Z,91.30
2023-02-02T01:01:45.035Z,91.50
2023-02-02T01:02:45.001Z,90.99
2023-02-02T01:03:45.021Z,90.89
2023-02-02T01:04:44.993Z,90.78
2023-02-02T01:05:44.971Z,90.99
2023-02-02T01:06:44.961Z,90.99
2023-02-02T01:07:44.952Z,91.09
2023-02-02T01:08:44.949Z,90.43
2023-02-02T01:09:44.937Z,90.74
2023-02-02T01:10:44.915Z,89.92
2023-02-02T01:11:44.912Z,90.84
2023-02-02T01:12:44.891Z,90.12
2023-02-02T01:13:44.888Z,89.40
2023-02-02T01:14:44.896Z,89.71
2023-02-02T01:15:44.863Z,89.81
2023-02-02T01:16:44.888Z,89.61
2023-02-02T01:17:44.846Z,90.53
2023-02-02T01:18:44.840Z,90.43
2023-02-02T01:19:44.866Z,91.16
2023-02-02T01:20:44.817Z,91.09
2023-02-02T01:21:44.791Z,90.99
2023-02-02T01:22:44.788Z,91.05
2023-02-02T01:23:44.775Z,91.61
2023-02-02T01:24:44.760Z,91.71
2023-02-02T01:25:44.763Z,91.82
2023-02-02T01:26:44.778Z,92.64
2023-02-02T01:27:44.745Z,92.70
2023-02-02T01:28:44.712Z,92.33
2023-02-02T01:29:44.715Z,92.44
2023-02-02T01:30:44.729Z,92.44
2023-02-02T01:31:44.719Z,92.64
2023-02-02T01:32:44.675Z,92.64
2023-02-02T01:33:44.670Z,92.13
2023-02-02T01:34:44.658Z,92.85
2023-02-02T01:35:44.684Z,93.37
2023-02-02T01:36:44.639Z,93.98
2023-02-02T01:37:44.619Z,94.03
2023-02-02T01:38:44.604Z,94.44
2023-02-02T01:39:44.592Z,94.03
2023-02-02T01:40:44.601Z,93.98
2023-02-02T01:41:44.588Z,93.88
2023-02-02T01:42:44.575Z,93.88
2023-02-02T01:43:44.564Z,93.98
2023-02-02T01:44:44.562Z,93.47
2023-02-02T01:45:44.569Z,92.95
2023-02-02T01:46:44.530Z,92.95
2023-02-02T01:47:44.523Z,92.95
2023-02-02T01:48:44.505Z,92.85
2023-02-02T01:49:44.486Z,92.85
2023-02-02T01:50:44.497Z,92.85
2023-02-02T01:51:44.493Z,92.40
2023-02-02T01:52:44.462Z,92.95
2023-02-02T01:53:44.455Z,92.95
2023-02-02T01:54:44.452Z,93.57
2023-02-02T01:55:44.429Z,92.54
2023-02-02T01:56:44.421Z,93.01
2023-02-02T01:57:44.401Z,92.85
2023-02-02T01:58:44.403Z,92.85
2023-02-02T01:59:44.388Z,92.85
2023-02-02T02:00:46.141Z,93.05
2023-02-02T02:01:44.363Z,92.95
2023-02-02T02:02:44.491Z,92.64
2023-02-02T02:03:44.367Z,92.85
2023-02-02T02:04:44.326Z,92.85
2023-02-02T02:05:44.367Z,92.85
2023-02-02T02:06:44.309Z,92.44
2023-02-02T02:07:44.316Z,92.74
2023-02-02T02:08:44.280Z,93.37
2023-02-02T02:09:44.285Z,93.57
2023-02-02T02:10:44.266Z,93.68
2023-02-02T02:11:44.266Z,92.95
2023-02-02T02:12:44.247Z,93.47
2023-02-02T02:13:44.229Z,93.98
2023-02-02T02:14:44.239Z,93.16
2023-02-02T02:15:44.213Z,93.78
2023-02-02T02:16:44.213Z,93.68
2023-02-02T02:17:44.184Z,93.88
2023-02-02T02:18:44.185Z,94.19
2023-02-02T02:19:44.160Z,93.68
2023-02-02T02:20:44.163Z,93.78
2023-02-02T02:21:44.161Z,94.19
2023-02-02T02:22:44.133Z,93.78
2023-02-02T02:23:44.156Z,93.78
2023-02-02T02:24:44.131Z,93.37
2023-02-02T02:25:44.106Z,93.16
2023-02-02T02:26:44.172Z,93.57
2023-02-02T02:27:44.087Z,92.80
2023-02-02T02:28:44.073Z,92.74
2023-02-02T02:29:44.061Z,91.77
2023-02-02T02:30:44.134Z,92.40
2023-02-02T02:31:44.119Z,92.40
2023-02-02T02:32:44.044Z,93.05
2023-02-02T02:33:44.019Z,93.57
2023-02-02T02:34:44.011Z,92.85
2023-02-02T02:35:44.011Z,92.91
2023-02-02T02:36:44.006Z,93.01
2023-02-02T02:37:43.992Z,93.63
2023-02-02T02:38:43.963Z,92.91
2023-02-02T02:39:43.982Z,93.26
2023-02-02T02:40:43.939Z,93.12
2023-02-02T02:41:43.950Z,92.95
2023-02-02T02:42:43.923Z,93.43
2023-02-02T02:43:43.921Z,92.95
2023-02-02T02:44:43.893Z,93.47
2023-02-02T02:45:43.885Z,93.68
2023-02-02T02:46:43.891Z,94.29
2023-02-02T02:47:43.883Z,94.29
2023-02-02T02:48:43.852Z,94.50
2023-02-02T02:49:43.847Z,94.19
2023-02-02T02:50:43.829Z,94.09
2023-02-02T02:51:43.819Z,93.98
2023-02-02T02:52:43.823Z,94.25
2023-02-02T02:53:43.799Z,94.09
2023-02-02T02:54:43.784Z,93.98
2023-02-02T02:55:43.795Z,94.09
2023-02-02T02:56:43.780Z,94.29
2023-02-02T02:57:43.769Z,95.53
2023-02-02T02:58:43.745Z,94.92
2023-02-02T02:59:43.730Z,95.43
2023-02-02T03:00:43.733Z,95.17
2023-02-02T03:01:43.737Z,95.68
2023-02-02T03:02:43.724Z,95.53
2023-02-02T03:03:43.711Z,96.30
2023-02-02T03:04:43.684Z,96.67
2023-02-02T03:05:43.695Z,97.02
2023-02-02T03:06:43.662Z,97.02
2023-02-02T03:07:43.659Z,98.27
2023-02-02T03:08:43.648Z,98.16
2023-02-02T03:09:43.655Z,98.72
2023-02-02T03:10:43.631Z,99.55
2023-02-02T03:11:43.623Z,99.24
2023-02-02T03:12:43.596Z,99.24
2023-02-02T03:13:43.591Z,99.34
2023-02-02T03:14:43.611Z,99.14
2023-02-02T03:15:43.571Z,98.93
2023-02-02T03:16:43.565Z,98.93
2023-02-02T03:17:43.538Z,98.93
2023-02-02T03:18:43.536Z,98.93
2023-02-02T03:19:43.530Z,99.14
2023-02-02T03:20:43.544Z,99.14
2023-02-02T03:21:43.508Z,98.62
2023-02-02T03:22:43.504Z,99.04
2023-02-02T03:23:43.483Z,98.62
2023-02-02T03:24:43.466Z,99.14
2023-02-02T03:25:43.465Z,98.83
2023-02-02T03:26:43.509Z,99.14
2023-02-02T03:27:43.456Z,99.14
2023-02-02T03:28:43.440Z,99.14
2023-02-02T03:29:43.441Z,98.62
2023-02-02T03:30:43.448Z,98.62
2023-02-02T03:31:43.433Z,98.83
2023-02-02T03:32:43.386Z,98.83
2023-02-02T03:33:43.370Z,98.83
2023-02-02T03:34:43.372Z,98.93
2023-02-02T03:35:43.369Z,99.55
2023-02-02T03:36:43.393Z,99.14
2023-02-02T03:37:43.338Z,99.55
2023-02-02T03:38:43.331Z,99.44
2023-02-02T03:39:43.318Z,99.65
2023-02-02T03:40:43.305Z,99.86
2023-02-02T03:41:43.293Z,99.24
2023-02-02T03:42:43.287Z,98.72
2023-02-02T03:43:43.284Z,99.24
2023-02-02T03:44:43.265Z,98.83
2023-02-02T03:45:43.272Z,98.21
2023-02-02T03:46:43.267Z,98.41
2023-02-02T03:47:43.234Z,98.41
2023-02-02T03:48:43.227Z,98.52
2023-02-02T03:49:43.215Z,98.62
2023-02-02T03:50:43.204Z,98.62
2023-02-02T03:51:43.213Z,97.69
2023-02-02T03:52:43.190Z,98.10
2023-02-02T03:53:43.168Z,98.00
2023-02-02T03:54:43.168Z,98.00
2023-02-02T03:55:43.155Z,98.10
2023-02-02T03:56:43.143Z,98.37
2023-02-02T03:57:43.130Z,97.69
2023-02-02T03:58:43.116Z,97.75
2023-02-02T03:59:43.136Z,97.59
2023-02-02T04:00:43.107Z,98.21
2023-02-02T04:01:43.148Z,97.79
2023-02-02T04:02:43.097Z,97.89
2023-02-02T04:03:43.075Z,97.49
2023-02-02T04:04:43.061Z,97.44
2023-02-02T04:05:43.053Z,97.44
2023-02-02T04:06:43.040Z,96.86
2023-02-02T04:07:43.015Z,96.82
2023-02-02T04:08:43.021Z,97.07
2023-02-02T04:09:43.026Z,96.72
2023-02-02T04:10:43.002Z,96.61
2023-02-02T04:11:42.996Z,96.66
2023-02-02T04:12:42.967Z,96.41
2023-02-02T04:13:42.967Z,96.82
2023-02-02T04:14:42.945Z,96.51
2023-02-02T04:15:42.976Z,96.72
2023-02-02T04:16:42.935Z,95.89
2023-02-02T04:17:42.933Z,96.30
2023-02-02T04:18:42.912Z,96.76
2023-02-02T04:19:42.923Z,96.86
2023-02-02T04:20:42.893Z,96.41
2023-02-02T04:21:42.885Z,95.68
2023-02-02T04:22:42.879Z,96.09
2023-02-02T04:23:42.861Z,96.55
2023-02-02T04:24:42.849Z,96.82
2023-02-02T04:25:42.860Z,96.09
2023-02-02T04:26:42.905Z,96.66
2023-02-02T04:27:42.824Z,95.99
2023-02-02T04:28:42.802Z,95.48
2023-02-02T04:29:42.807Z,95.10
2023-02-02T04:30:42.810Z,95.83
2023-02-02T04:31:42.840Z,96.14
2023-02-02T04:32:42.783Z,95.78
2023-02-02T04:33:42.755Z,95.68
2023-02-02T04:34:42.741Z,95.21
2023-02-02T04:35:42.742Z,95.06
2023-02-02T04:36:42.751Z,95.06
2023-02-02T04:37:42.719Z,94.85
2023-02-02T04:38:42.712Z,94.65
2023-02-02T04:39:42.698Z,94.44
2023-02-02T04:40:42.683Z,94.23
2023-02-02T04:41:42.673Z,94.54
2023-02-02T04:42:42.675Z,94.65
2023-02-02T04:43:42.648Z,94.13
2023-02-02T04:44:42.654Z,94.34
2023-02-02T04:45:42.857Z,93.72
2023-02-02T04:46:42.639Z,93.82
2023-02-02T04:47:42.631Z,93.98
2023-02-02T04:48:42.606Z,94.03
2023-02-02T04:49:42.604Z,93.93
2023-02-02T04:50:42.578Z,94.44
2023-02-02T04:51:42.561Z,94.13
2023-02-02T04:52:42.556Z,94.54
2023-02-02T04:53:42.571Z,94.54
2023-02-02T04:54:42.540Z,94.85
2023-02-02T04:55:42.541Z,94.13
2023-02-02T04:56:42.519Z,94.85
2023-02-02T04:57:42.501Z,94.75
2023-02-02T04:58:42.509Z,95.48
2023-02-02T04:59:42.643Z,95.37
2023-02-02T05:00:42.599Z,94.75
2023-02-02T05:01:42.479Z,95.17
2023-02-02T05:02:42.448Z,96.03
2023-02-02T05:03:42.464Z,95.83
2023-02-02T05:04:42.487Z,96.03
2023-02-02T05:05:42.416Z,95.00
2023-02-02T05:06:42.423Z,95.62
2023-02-02T05:07:42.419Z,96.14
2023-02-02T05:08:42.386Z,96.34
2023-02-02T05:09:42.376Z,96.24
2023-02-02T05:10:42.407Z,96.09
2023-02-02T05:11:42.371Z,95.83
2023-02-02T05:12:42.351Z,96.30
2023-02-02T05:13:42.333Z,96.55
2023-02-02T05:14:42.335Z,96.66
2023-02-02T05:15:42.319Z,96.34
2023-02-02T05:16:42.331Z,96.30
2023-02-02T05:17:42.290Z,96.41
2023-02-02T05:18:42.286Z,96.03
2023-02-02T05:19:42.299Z,96.45
2023-02-02T05:20:42.303Z,96.45
2023-02-02T05:21:42.245Z,96.45
2023-02-02T05:22:42.257Z,96.34
2023-02-02T05:23:42.244Z,96.55
2023-02-02T05:24:42.226Z,96.24
2023-02-02T05:25:42.208Z,95.89
2023-02-02T05:26:42.284Z,96.86
2023-02-02T05:27:42.202Z,96.09
2023-02-02T05:28:42.176Z,95.57
2023-02-02T05:29:42.166Z,95.68
2023-02-02T05:30:42.172Z,96.30
2023-02-02T05:31:42.203Z,96.61
2023-02-02T05:32:42.154Z,96.51
2023-02-02T05:33:42.124Z,96.09
2023-02-02T05:34:42.123Z,96.20
2023-02-02T05:35:42.122Z,95.68
2023-02-02T05:36:42.087Z,96.41
2023-02-02T05:37:42.079Z,96.72
2023-02-02T05:38:42.091Z,96.82
2023-02-02T05:39:42.048Z,96.30
2023-02-02T05:40:42.065Z,96.51
2023-02-02T05:41:42.030Z,96.09
2023-02-02T05:42:42.027Z,95.78
2023-02-02T05:43:42.049Z,95.78
2023-02-02T05:44:42.004Z,95.68
2023-02-02T05:45:42.021Z,95.48
2023-02-02T05:46:41.993Z,95.78
2023-02-02T05:47:41.979Z,95.78
2023-02-02T05:48:41.957Z,95.99
2023-02-02T05:49:41.956Z,94.96
2023-02-02T05:50:41.930Z,95.37
2023-02-02T05:51:41.939Z,95.10
2023-02-02T05:52:41.919Z,95.00
2023-02-02T05:53:41.897Z,94.75
2023-02-02T05:54:41.932Z,95.17
2023-02-02T05:55:41.886Z,94.54
2023-02-02T05:56:41.881Z,94.59
2023-02-02T05:57:41.864Z,94.38
2023-02-02T05:58:41.853Z,94.28
2023-02-02T05:59:41.850Z,94.13
2023-02-02T06:00:41.850Z,94.59
2023-02-02T06:01:41.825Z,94.38
2023-02-02T06:02:41.870Z,94.07
2023-02-02T06:03:41.858Z,94.18
2023-02-02T06:04:41.788Z,94.48
2023-02-02T06:05:41.780Z,94.18
2023-02-02T06:06:41.796Z,94.18
2023-02-02T06:07:41.767Z,94.59
2023-02-02T06:08:41.749Z,94.38
2023-02-02T06:09:41.738Z,94.59
2023-02-02T06:10:41.726Z,94.44
2023-02-02T06:11:41.707Z,93.97
2023-02-02T06:12:41.718Z,94.69
2023-02-02T06:13:41.700Z,95.00
2023-02-02T06:14:41.686Z,94.90
2023-02-02T06:15:41.704Z,94.54
2023-02-02T06:16:41.676Z,94.54
2023-02-02T06:17:41.663Z,94.54
2023-02-02T06:18:41.644Z,94.96
2023-02-02T06:19:41.625Z,94.85
2023-02-02T06:20:41.620Z,94.79
2023-02-02T06:21:41.614Z,95.17
2023-02-02T06:22:41.591Z,95.06
2023-02-02T06:23:41.610Z,95.06
2023-02-02T06:24:41.575Z,94.85
2023-02-02T06:25:41.574Z,94.44
2023-02-02T06:26:41.657Z,94.23
2023-02-02T06:27:41.545Z,94.23
2023-02-02T06:28:41.541Z,93.93
2023-02-02T06:29:41.529Z,94.34
2023-02-02T06:30:43.901Z,94.34
2023-02-02T06:31:41.644Z,93.93
2023-02-02T06:32:41.504Z,93.62
2023-02-02T06:33:41.486Z,93.82
2023-02-02T06:34:41.467Z,94.34
2023-02-02T06:35:41.467Z,94.23
2023-02-02T06:36:41.457Z,94.38
2023-02-02T06:37:41.441Z,94.18
2023-02-02T06:38:41.466Z,94.48
2023-02-02T06:39:41.434Z,94.54
2023-02-02T06:40:41.399Z,95.31
2023-02-02T06:41:41.417Z,95.17
2023-02-02T06:42:41.418Z,95.10
2023-02-02T06:43:41.398Z,95.10
2023-02-02T06:44:41.368Z,95.42
2023-02-02T06:45:41.357Z,95.94
2023-02-02T06:46:41.417Z,95.83
2023-02-02T06:47:41.325Z,95.56
2023-02-02T06:48:41.320Z,95.73
2023-02-02T06:49:41.322Z,95.62
2023-02-02T06:50:41.317Z,96.19
2023-02-02T06:51:41.296Z,96.34
2023-02-02T06:52:41.286Z,96.39
2023-02-02T06:53:41.265Z,96.14
2023-02-02T06:54:41.273Z,95.87
2023-02-02T06:55:41.270Z,96.08
2023-02-02T06:56:41.240Z,96.59
2023-02-02T06:57:41.225Z,96.08
2023-02-02T06:58:41.229Z,96.08
2023-02-02T06:59:41.210Z,96.70
2023-02-02T07:00:41.205Z,96.59
2023-02-02T07:01:41.270Z,96.76
2023-02-02T07:02:41.226Z,96.59
2023-02-02T07:03:41.176Z,97.01
2023-02-02T07:04:41.165Z,96.59
2023-02-02T07:05:41.156Z,96.49
2023-02-02T07:06:41.154Z,96.70
2023-02-02T07:07:41.124Z,97.07
2023-02-02T07:08:41.125Z,96.80
2023-02-02T07:09:41.116Z,97.07
2023-02-02T07:11:09.505Z,96.55
2023-02-02T07:11:43.194Z,96.66
2023-02-02T07:12:41.080Z,96.76
2023-02-02T07:13:41.065Z,96.97
2023-02-02T07:14:41.052Z,96.86
2023-02-02T07:15:41.112Z,97.17
2023-02-02T07:16:41.040Z,97.38
2023-02-02T07:17:41.015Z,97.38
2023-02-02T07:18:41.024Z,97.28
2023-02-02T07:19:40.993Z,97.49
2023-02-02T07:20:41.011Z,97.38
2023-02-02T07:21:41.004Z,97.07
2023-02-02T07:22:40.968Z,97.17
2023-02-02T07:23:40.962Z,97.28
2023-02-02T07:24:40.959Z,97.38
2023-02-02T07:25:43.588Z,97.28
2023-02-02T07:26:41.007Z,96.97
2023-02-02T07:27:40.950Z,96.86
2023-02-02T07:28:40.920Z,97.28
2023-02-02T07:29:40.905Z,96.97
2023-02-02T07:30:40.952Z,96.86
2023-02-02T07:31:41.013Z,97.23
2023-02-02T07:32:40.882Z,97.17
2023-02-02T07:33:40.856Z,97.44
2023-02-02T07:34:40.889Z,97.38
2023-02-02T07:35:40.836Z,97.28
2023-02-02T07:36:40.815Z,97.49
2023-02-02T07:37:40.830Z,97.28
2023-02-02T07:38:40.809Z,97.28
2023-02-02T07:39:40.785Z,97.75
2023-02-02T07:40:40.780Z,97.23
2023-02-02T07:41:40.774Z,97.49
2023-02-02T07:42:40.752Z,97.49
2023-02-02T07:43:40.778Z,97.44
2023-02-02T07:44:40.741Z,96.66
2023-02-02T07:45:41.124Z,96.66
2023-02-02T07:46:40.747Z,96.61
2023-02-02T07:47:40.702Z,96.66
2023-02-02T07:48:40.695Z,96.61
2023-02-02T07:49:40.700Z,96.72
2023-02-02T07:50:40.679Z,95.57
2023-02-02T07:51:44.316Z,95.78
2023-02-02T07:52:41.655Z,95.27
2023-02-02T07:53:40.665Z,94.96
2023-02-02T07:54:40.672Z,94.92
2023-02-02T07:55:40.627Z,94.92
2023-02-02T07:56:40.609Z,94.60
2023-02-02T07:57:40.598Z,94.60
2023-02-02T07:58:40.589Z,95.22
2023-02-02T07:59:40.627Z,95.12
2023-02-02T08:00:40.606Z,95.22
2023-02-02T08:01:40.610Z,95.32
2023-02-02T08:02:40.600Z,95.02
2023-02-02T08:03:40.540Z,95.02
2023-02-02T08:04:40.546Z,95.02
2023-02-02T08:05:40.519Z,95.17
2023-02-02T08:06:40.512Z,95.12
2023-02-02T08:07:40.508Z,95.12
2023-02-02T08:08:40.481Z,95.02
2023-02-02T08:09:40.482Z,95.32
2023-02-02T08:10:40.473Z,95.37
2023-02-02T08:11:40.459Z,96.05
2023-02-02T08:12:40.450Z,95.64
2023-02-02T08:13:40.428Z,95.68
2023-02-02T08:14:40.422Z,95.95
2023-02-02T08:15:40.460Z,95.48
2023-02-02T08:16:40.403Z,95.37
2023-02-02T08:17:40.385Z,95.22
2023-02-02T08:18:40.377Z,95.53
2023-02-02T08:19:40.369Z,95.32
2023-02-02T08:20:40.363Z,94.40
2023-02-02T08:21:40.361Z,95.02
2023-02-02T08:22:40.337Z,94.81
2023-02-02T08:23:40.349Z,95.02
2023-02-02T08:24:40.309Z,95.12
2023-02-02T08:25:40.296Z,95.22
2023-02-02T08:26:40.331Z,94.50
2023-02-02T08:27:40.276Z,94.09
2023-02-02T08:28:40.278Z,94.09
2023-02-02T08:29:40.264Z,93.16
2023-02-02T08:30:40.306Z,93.26
2023-02-02T08:31:40.316Z,93.05
2023-02-02T08:32:40.232Z,93.26
2023-02-02T08:33:40.219Z,93.68
2023-02-02T08:34:40.220Z,93.37
2023-02-02T08:35:40.192Z,93.16
2023-02-02T08:36:40.186Z,93.88
2023-02-02T08:37:40.179Z,94.29
2023-02-02T08:38:40.179Z,94.29
2023-02-02T08:39:40.152Z,94.19
2023-02-02T08:40:40.152Z,93.98
2023-02-02T08:41:40.181Z,94.29
2023-02-02T08:42:40.162Z,94.29
2023-02-02T08:43:40.139Z,93.78
2023-02-02T08:45:00.980Z,94.19
2023-02-02T08:46:03.947Z,94.09
2023-02-02T08:46:41.181Z,94.19
2023-02-02T08:47:40.089Z,94.29
2023-02-02T08:48:40.046Z,94.03
2023-02-02T08:49:40.037Z,94.13
2023-02-02T08:50:40.023Z,94.09
2023-02-02T08:51:40.034Z,93.37
2023-02-02T08:52:40.032Z,93.68
2023-02-02T08:53:39.994Z,93.26
2023-02-02T08:54:39.990Z,93.05
2023-02-02T08:55:39.976Z,93.26
2023-02-02T08:56:39.961Z,93.78
2023-02-02T08:57:40.072Z,93.37
2023-02-02T08:58:39.959Z,93.78
2023-02-02T08:59:39.939Z,94.03
2023-02-02T09:00:39.949Z,94.03
2023-02-02T09:01:39.910Z,94.09
2023-02-02T09:02:39.902Z,94.23
2023-02-02T09:03:39.916Z,93.98
2023-02-02T09:04:39.883Z,93.78
2023-02-02T09:05:39.888Z,93.26
2023-02-02T09:06:39.883Z,93.22
2023-02-02T09:07:39.876Z,93.12
2023-02-02T09:08:39.901Z,93.28
2023-02-02T09:09:39.827Z,92.97
2023-02-02T09:10:39.818Z,93.38
2023-02-02T09:11:39.793Z,92.25
2023-02-02T09:12:39.798Z,92.55
2023-02-02T09:13:39.806Z,92.97
2023-02-02T09:14:39.772Z,92.82
2023-02-02T09:15:39.756Z,92.66
2023-02-02T09:16:39.824Z,92.31
2023-02-02T09:17:39.776Z,92.41
2023-02-02T09:18:39.727Z,92.31
2023-02-02T09:19:39.735Z,92.31
2023-02-02T09:20:39.719Z,91.58
2023-02-02T09:21:39.714Z,92.82
2023-02-02T09:22:39.672Z,91.58
2023-02-02T09:23:39.673Z,91.48
2023-02-02T09:24:39.677Z,91.48
2023-02-02T09:25:39.650Z,91.34
2023-02-02T09:26:39.656Z,91.13
2023-02-02T09:27:39.632Z,91.34
2023-02-02T09:28:39.621Z,90.92
2023-02-02T09:29:39.602Z,90.82
2023-02-02T09:30:39.675Z,91.13
2023-02-02T09:31:39.605Z,90.92
2023-02-02T09:32:39.576Z,90.10
2023-02-02T09:33:39.575Z,90.20
2023-02-02T09:34:40.862Z,89.28
2023-02-02T09:35:39.556Z,89.42
2023-02-02T09:36:39.549Z,89.62
2023-02-02T09:37:39.521Z,89.52
2023-02-02T09:38:39.506Z,89.69
2023-02-02T09:39:39.495Z,89.58
2023-02-02T09:40:39.488Z,89.48
2023-02-02T09:41:39.501Z,89.28
2023-02-02T09:42:39.485Z,87.83
2023-02-02T09:43:39.474Z,87.42
2023-02-02T09:44:39.450Z,87.21
2023-02-02T09:45:39.531Z,88.04
2023-02-02T09:46:39.439Z,87.32
2023-02-02T09:47:39.415Z,87.56
2023-02-02T09:48:39.408Z,87.56
2023-02-02T09:49:39.406Z,87.35
2023-02-02T09:50:39.397Z,87.98
2023-02-02T09:51:39.422Z,87.46
2023-02-02T09:52:39.375Z,87.26
2023-02-02T09:53:53.177Z,87.66
2023-02-02T09:54:40.343Z,86.80
2023-02-02T09:55:39.347Z,87.07
2023-02-02T09:56:39.313Z,86.24
2023-02-02T09:57:39.318Z,85.31
2023-02-02T09:58:39.298Z,85.42
2023-02-02T09:59:39.291Z,85.52
2023-02-02T10:00:39.273Z,85.49
2023-02-02T10:01:39.307Z,85.49
2023-02-02T10:02:39.280Z,85.42
2023-02-02T10:03:39.308Z,85.52
2023-02-02T10:04:39.233Z,86.15
2023-02-02T10:05:39.228Z,85.94
2023-02-02T10:06:39.225Z,86.31
2023-02-02T10:07:39.238Z,85.49
2023-02-02T10:08:39.216Z,85.28
2023-02-02T10:09:39.188Z,85.07
2023-02-02T10:10:39.176Z,85.49
2023-02-02T10:11:39.292Z,85.49
2023-02-02T10:12:39.151Z,85.01
2023-02-02T10:13:39.233Z,85.73
2023-02-02T10:14:39.192Z,86.04
2023-02-02T10:15:39.160Z,85.83
2023-02-02T10:16:39.113Z,86.10
2023-02-02T10:17:39.097Z,86.31
2023-02-02T10:18:39.089Z,85.69
2023-02-02T10:19:39.071Z,85.89
2023-02-02T10:20:39.101Z,86.10
2023-02-02T10:21:39.060Z,85.17
2023-02-02T10:22:39.044Z,85.75
2023-02-02T10:23:39.067Z,86.16
2023-02-02T10:24:39.041Z,85.07
2023-02-02T10:25:39.011Z,85.38
2023-02-02T10:26:39.074Z,84.97
2023-02-02T10:27:39.000Z,85.22
2023-02-02T10:28:38.979Z,86.15
2023-02-02T10:29:48.608Z,86.66
2023-02-02T10:30:40.125Z,85.63
2023-02-02T10:31:39.049Z,87.07
2023-02-02T10:32:38.957Z,87.17
2023-02-02T10:33:38.924Z,87.52
2023-02-02T10:34:38.928Z,88.72
2023-02-02T10:35:38.903Z,87.99
2023-02-02T10:36:38.894Z,87.93
2023-02-02T10:37:38.880Z,88.86
2023-02-02T10:38:38.884Z,89.28
2023-02-02T10:39:38.938Z,89.03
2023-02-02T10:40:38.866Z,87.90
2023-02-02T10:41:38.843Z,87.75
2023-02-02T10:42:38.834Z,87.96
2023-02-02T10:43:38.810Z,87.75
2023-02-02T10:44:38.812Z,87.75
2023-02-02T10:45:38.803Z,87.85
2023-02-02T10:46:38.857Z,88.99
2023-02-02T10:47:38.782Z,89.19
2023-02-02T10:48:38.771Z,88.47
2023-02-02T10:49:46.296Z,88.47
2023-02-02T10:50:38.759Z,89.44
2023-02-02T10:51:46.277Z,88.92
2023-02-02T10:52:38.722Z,88.99
2023-02-02T10:53:38.706Z,89.13
2023-02-02T10:54:54.061Z,88.57
2023-02-02T10:55:39.720Z,89.19
2023-02-02T10:56:47.674Z,88.26
2023-02-02T10:57:46.201Z,88.84
2023-02-02T10:58:38.656Z,88.53
2023-02-02T10:59:46.175Z,87.40
2023-02-02T11:00:46.183Z,88.53
2023-02-02T11:01:38.674Z,87.92
2023-02-02T11:02:38.657Z,88.06
2023-02-02T11:03:38.606Z,88.33
2023-02-02T11:04:38.596Z,88.43
2023-02-02T11:05:38.583Z,87.36
2023-02-02T11:06:38.575Z,87.36
2023-02-02T11:07:38.565Z,86.54
2023-02-02T11:08:38.546Z,86.54
2023-02-02T11:09:38.566Z,85.92
2023-02-02T11:10:38.531Z,85.14
2023-02-02T11:11:38.552Z,85.86
2023-02-02T11:12:38.522Z,85.55
2023-02-02T11:13:38.491Z,86.16
2023-02-02T11:14:45.196Z,85.82
2023-02-02T11:15:39.482Z,85.61
2023-02-02T11:16:43.121Z,85.71
2023-02-02T11:17:39.472Z,85.92
2023-02-02T11:18:38.458Z,85.86
2023-02-02T11:19:38.429Z,86.37
2023-02-02T11:20:38.434Z,86.47
2023-02-02T11:21:38.407Z,87.09
2023-02-02T11:22:38.435Z,86.79
2023-02-02T11:23:38.398Z,86.79
2023-02-02T11:24:38.392Z,85.96
2023-02-02T11:25:38.372Z,86.10
2023-02-02T11:26:38.416Z,86.10
2023-02-02T11:27:38.378Z,86.10
2023-02-02T11:28:38.352Z,86.41
2023-02-02T11:29:38.330Z,86.72
2023-02-02T11:30:38.412Z,87.13
2023-02-02T11:31:38.434Z,87.13
2023-02-02T11:32:38.303Z,86.31
2023-02-02T11:33:38.289Z,85.59
2023-02-02T11:34:38.287Z,86.31
2023-02-02T11:35:38.263Z,86.00
2023-02-02T11:36:38.280Z,85.44
2023-02-02T11:37:38.262Z,85.34
2023-02-02T11:38:38.237Z,85.03
2023-02-02T11:39:38.214Z,84.07
2023-02-02T11:40:38.212Z,83.49
2023-02-02T11:41:38.195Z,83.49
2023-02-02T11:42:38.198Z,83.18
2023-02-02T11:43:38.216Z,83.49
2023-02-02T11:44:38.179Z,82.87
2023-02-02T11:45:38.154Z,83.39
2023-02-02T11:46:38.220Z,82.87
2023-02-02T11:47:38.150Z,82.67
2023-02-02T11:48:38.154Z,83.18
2023-02-02T11:49:38.131Z,83.14
2023-02-02T11:50:38.225Z,83.35
2023-02-02T11:51:38.093Z,83.55
2023-02-02T11:52:38.075Z,83.65
2023-02-02T11:53:38.085Z,83.55
2023-02-02T11:54:38.054Z,83.65
2023-02-02T11:55:38.059Z,83.14
2023-02-02T11:56:38.052Z,83.49
2023-02-02T11:57:38.019Z,83.86
2023-02-02T11:58:38.026Z,84.17
2023-02-02T11:59:38.024Z,84.48
2023-02-02T12:00:38.000Z,84.38
2023-02-02T12:01:38.031Z,84.00
2023-02-02T12:02:37.964Z,84.17
2023-02-02T12:03:37.966Z,84.52
2023-02-02T12:04:37.965Z,85.34
2023-02-02T12:05:37.979Z,86.06
2023-02-02T12:06:37.922Z,87.09
2023-02-02T12:07:37.925Z,87.40
2023-02-02T12:08:37.903Z,87.81
2023-02-02T12:09:37.899Z,87.44
2023-02-02T12:10:37.899Z,87.65
2023-02-02T12:11:37.885Z,88.26
2023-02-02T12:12:37.863Z,86.82
2023-02-02T12:13:37.860Z,87.13
2023-02-02T12:14:37.855Z,86.31
2023-02-02T12:15:37.846Z,86.41
2023-02-02T12:16:37.932Z,86.41
2023-02-02T12:17:37.816Z,88.99
2023-02-02T12:18:37.820Z,89.44
2023-02-02T12:19:37.795Z,90.26
2023-02-02T12:20:37.777Z,91.13
2023-02-02T12:21:37.774Z,92.99
2023-02-02T12:22:37.811Z,93.07
2023-02-02T12:23:37.766Z,93.73
2023-02-02T12:24:37.741Z,93.94
2023-02-02T12:25:37.721Z,94.93
2023-02-02T12:26:37.888Z,94.15
2023-02-02T12:27:37.721Z,94.77
2023-02-02T12:28:37.712Z,95.80
2023-02-02T12:29:37.700Z,95.64
2023-02-02T12:30:37.724Z,95.95
2023-02-02T12:31:37.730Z,96.56
2023-02-02T12:32:37.675Z,96.56
2023-02-02T12:33:37.673Z,97.08
2023-02-02T12:34:37.640Z,97.55
2023-02-02T12:35:37.622Z,97.45
2023-02-02T12:36:37.631Z,96.88
2023-02-02T12:37:37.619Z,96.98
2023-02-02T12:38:37.596Z,97.25
2023-02-02T12:39:37.590Z,97.66
2023-02-02T12:40:37.565Z,97.66
2023-02-02T12:41:37.619Z,97.04
2023-02-02T12:42:37.553Z,97.04
2023-02-02T12:43:37.555Z,96.62
2023-02-02T12:44:37.551Z,95.96
2023-02-02T12:45:37.573Z,95.92
2023-02-02T12:46:37.511Z,93.85
2023-02-02T12:47:37.517Z,92.68
2023-02-02T12:48:37.495Z,92.47
2023-02-02T12:49:37.491Z,92.16
2023-02-02T12:50:37.460Z,91.81
2023-02-02T12:51:37.475Z,92.43
2023-02-02T12:52:37.449Z,90.88